CNH weather

Claremont Municipal Airport
Claremont, New Hampshire, United States

Public forecast

Using degrees Fahrenheit for public forecast. Weather courtesy of forecast.io.

METAR (pilot weather report)

Closest report is Hartness State (Springfield) Airport, 6.7 nm (12.4 km) WSW. Retrieved 2019/04/22 05:54 UTC (19 minutes ago):

KVSF 220554Z AUTO 00000KT 10SM BKN021 OVC026 10/09 A3012 RMK AO2 SLP200 T01000089 10139 20083 51003

TAF (pilot weather forecast)

Closest forecast is Lebanon Municipal Airport, 15.6 nm (28.9 km) N. Retrieved 2019/04/22 06:27 UTC (0 seconds ago):

TAF KLEB 220525Z 2206/2306 VRB04KT P6SM SCT011 BKN200 FM221400 36008KT P6SM BKN035 FM222200 01004KT P6SM -SHRA OVC015